Time;durP1;ratioP1;P1;durP2;ratioP2;P2;SDS_P1;SDS_P2;PMS_P1;PMS_P2;Temp;Humidity;BMP_temperature;BMP_pressure;BME280_temperature;BME280_humidity;BME280_pressure;Samples;Min_cycle;Max_cycle;Signal;HPM_P1;HPM_P2
2022/10/11 07:34:59;;;;;;;15.38;9.65;;;16.20;99.90;;;;;;5106507;23;20051;-77
2022/10/11 07:37:25;;;;;;;13.07;10.15;;;16.20;99.90;;;;;;5027736;28;20064;-75
2022/10/11 07:39:51;;;;;;;17.75;10.93;;;16.20;99.90;;;;;;5030308;28;20030;-75
2022/10/11 07:42:16;;;;;;;16.35;10.68;;;16.30;99.90;;;;;;5030439;28;20032;-75
2022/10/11 07:44:42;;;;;;;16.98;11.93;;;16.30;99.90;;;;;;5029148;28;20079;-75
2022/10/11 07:47:08;;;;;;;18.17;10.15;;;16.40;99.90;;;;;;5030134;28;20025;-75
2022/10/11 07:49:33;;;;;;;17.80;11.23;;;16.40;99.90;;;;;;5012773;28;20033;-75
2022/10/11 07:51:59;;;;;;;21.50;12.07;;;16.40;99.90;;;;;;5030431;28;20101;-75
2022/10/11 07:54:25;;;;;;;19.50;12.38;;;16.50;99.90;;;;;;5029718;28;20030;-74
2022/10/11 07:56:50;;;;;;;19.90;12.35;;;16.60;99.90;;;;;;5029693;28;20030;-75
2022/10/11 07:59:16;;;;;;;19.98;13.02;;;16.60;99.90;;;;;;5011486;28;20045;-75
2022/10/11 08:01:42;;;;;;;21.98;13.65;;;16.60;99.90;;;;;;5029281;28;20068;-74
2022/10/11 08:04:08;;;;;;;19.83;14.05;;;16.60;99.90;;;;;;5033278;28;20016;-74
2022/10/11 08:06:35;;;;;;;22.10;14.23;;;16.70;99.90;;;;;;5033875;28;20033;-75
2022/10/11 08:09:01;;;;;;;21.58;13.20;;;16.70;99.90;;;;;;5012593;28;20233;-74
2022/10/11 08:11:32;;;;;;;22.88;14.80;;;16.70;99.90;;;;;;5032444;28;20469;-75
2022/10/11 08:13:58;;;;;;;19.85;13.30;;;16.80;99.90;;;;;;5033396;28;20041;-75
2022/10/11 08:16:26;;;;;;;19.42;12.90;;;16.80;99.90;;;;;;5015183;28;20021;-74
2022/10/11 08:18:55;;;;;;;29.38;14.05;;;16.90;99.90;;;;;;5031643;28;20017;-74
2022/10/11 08:21:21;;;;;;;27.10;15.20;;;16.90;99.90;;;;;;5032128;28;20410;-75
2022/10/11 08:23:47;;;;;;;28.33;14.07;;;17.00;99.90;;;;;;5023553;28;20463;-75
2022/10/11 08:26:13;;;;;;;26.17;13.75;;;17.00;99.90;;;;;;5032657;28;20084;-75
2022/10/11 08:28:39;;;;;;;23.38;13.45;;;17.00;99.90;;;;;;5031843;28;20403;-74
2022/10/11 08:31:05;;;;;;;21.20;13.30;;;17.00;99.90;;;;;;5039368;28;20040;-75
2022/10/11 08:33:31;;;;;;;22.63;13.50;;;17.10;99.90;;;;;;5015731;28;20438;-76
2022/10/11 08:35:57;;;;;;;18.67;12.63;;;17.10;99.90;;;;;;5019197;28;20564;-75
2022/10/11 08:38:24;;;;;;;22.60;13.68;;;17.20;99.90;;;;;;5052997;28;20116;-76
2022/10/11 08:40:53;;;;;;;21.73;13.38;;;17.20;99.90;;;;;;5044085;28;20516;-75
2022/10/11 08:43:31;;;;;;;23.83;13.88;;;17.30;99.90;;;;;;5015089;28;20394;-75
2022/10/11 08:46:00;;;;;;;22.75;14.02;;;17.30;99.90;;;;;;5031484;28;20094;-74
2022/10/11 08:48:34;;;;;;;20.98;13.32;;;17.30;99.90;;;;;;5015208;28;20029;-74
2022/10/11 08:51:02;;;;;;;24.25;13.93;;;17.40;99.90;;;;;;5033056;28;20040;-74
2022/10/11 08:53:44;;;;;;;21.85;13.05;;;17.40;99.90;;;;;;5014797;28;20124;-75
2022/10/11 08:56:13;;;;;;;24.25;13.63;;;17.40;99.90;;;;;;5032663;28;20022;-74
2022/10/11 08:58:45;;;;;;;25.77;14.27;;;17.40;99.90;;;;;;5032957;28;20053;-74
2022/10/11 09:01:25;;;;;;;24.05;13.48;;;17.50;99.90;;;;;;5014821;28;20025;-75
2022/10/11 09:03:51;;;;;;;23.17;13.38;;;17.60;99.90;;;;;;5028190;28;20030;-83
2022/10/11 09:06:23;;;;;;;28.13;13.20;;;17.60;99.90;;;;;;5010638;28;20024;-83
2022/10/11 09:09:22;;;;;;;20.40;12.18;;;17.70;99.90;;;;;;5026464;28;20091;-83
2022/10/11 09:11:57;;;;;;;21.25;12.38;;;17.90;99.90;;;;;;5036316;28;20028;-81
2022/10/11 09:15:01;;;;;;;22.25;12.65;;;17.90;99.90;;;;;;5032700;28;20036;-82
2022/10/11 09:17:45;;;;;;;17.83;11.40;;;18.00;99.90;;;;;;5027934;28;20468;-83
2022/10/11 09:20:14;;;;;;;17.23;10.50;;;18.10;99.90;;;;;;5008880;28;20033;-84
2022/10/11 09:23:12;;;;;;;21.52;11.35;;;18.20;99.90;;;;;;5008314;28;20028;-83
2022/10/11 09:25:54;;;;;;;15.05;10.60;;;18.20;99.90;;;;;;4974469;28;20034;-83
2022/10/11 09:28:28;;;;;;;17.67;10.63;;;18.20;99.90;;;;;;5019877;28;20075;-82
2022/10/11 09:30:56;;;;;;;17.23;12.27;;;18.20;99.90;;;;;;5027327;28;20049;-83
2022/10/11 09:33:37;;;;;;;20.88;12.10;;;18.30;99.90;;;;;;5030734;28;20064;-82
2022/10/11 09:36:16;;;;;;;23.60;12.20;;;18.40;99.90;;;;;;5048302;28;20443;-82
2022/10/11 09:39:09;;;;;;;18.55;10.70;;;18.50;99.90;;;;;;5048277;28;20486;-82
2022/10/11 09:41:42;;;;;;;17.58;11.93;;;18.60;99.90;;;;;;5029587;28;20029;-82
2022/10/11 09:44:18;;;;;;;25.25;12.30;;;18.60;99.90;;;;;;5047661;28;20059;-82
2022/10/11 09:46:46;;;;;;;19.77;10.60;;;18.60;99.90;;;;;;5047237;28;20176;-83
2022/10/11 09:49:14;;;;;;;21.10;12.30;;;18.70;99.90;;;;;;5031109;28;20021;-83
2022/10/11 09:51:45;;;;;;;12.90;9.75;;;18.90;99.90;;;;;;5031562;28;20391;-83
2022/10/11 09:54:11;;;;;;;16.10;11.07;;;18.90;99.90;;;;;;5031791;28;20475;-83
2022/10/11 09:56:42;;;;;;;15.20;9.85;;;19.00;99.90;;;;;;5014588;28;20112;-83
2022/10/11 09:59:22;;;;;;;16.73;10.98;;;19.10;99.90;;;;;;5030100;28;20031;-83
2022/10/11 10:01:48;;;;;;;18.65;10.55;;;19.20;99.90;;;;;;5030014;28;20454;-84
2022/10/11 10:04:18;;;;;;;18.00;10.77;;;19.20;99.90;;;;;;5030135;28;20056;-83
2022/10/11 10:06:44;;;;;;;18.00;9.57;;;19.20;99.90;;;;;;5028837;28;20100;-83
2022/10/11 10:09:29;;;;;;;17.15;9.32;;;19.20;99.90;;;;;;5030090;28;20029;-83
2022/10/11 10:11:56;;;;;;;14.27;9.40;;;19.20;99.90;;;;;;5012443;28;20040;-84
2022/10/11 10:14:27;;;;;;;19.35;10.52;;;19.30;99.90;;;;;;5030115;28;20029;-82
2022/10/11 10:17:02;;;;;;;13.38;10.40;;;19.40;99.90;;;;;;5028504;28;20079;-83
2022/10/11 10:19:28;;;;;;;18.73;10.20;;;19.30;99.90;;;;;;5012196;28;20032;-84
2022/10/11 10:21:55;;;;;;;15.70;9.73;;;19.30;99.90;;;;;;5030099;28;20141;-83
2022/10/11 10:24:29;;;;;;;16.25;10.55;;;19.40;99.90;;;;;;5031347;28;20093;-84
2022/10/11 10:27:06;;;;;;;13.30;10.38;;;19.40;99.90;;;;;;5030706;28;20068;-83
2022/10/11 10:29:32;;;;;;;22.73;11.30;;;19.50;99.90;;;;;;5031185;28;20371;-83
2022/10/11 10:32:07;;;;;;;16.88;11.40;;;19.50;99.90;;;;;;5031217;28;20109;-84
2022/10/11 10:34:36;;;;;;;16.50;11.02;;;19.40;99.90;;;;;;5031141;28;20029;-84
2022/10/11 10:37:21;;;;;;;17.65;10.93;;;19.50;99.90;;;;;;5030802;28;20049;-84
2022/10/11 10:40:07;;;;;;;13.65;9.80;;;19.50;99.90;;;;;;5031068;28;20072;-84
2022/10/11 10:42:33;;;;;;;16.63;10.93;;;19.60;99.90;;;;;;5030820;28;20021;-83
2022/10/11 10:44:59;;;;;;;17.63;10.88;;;19.70;99.90;;;;;;5013286;28;20518;-84
2022/10/11 10:47:56;;;;;;;17.42;10.18;;;19.70;99.90;;;;;;5030931;28;20021;-83
2022/10/11 10:50:26;;;;;;;20.77;12.32;;;19.70;99.90;;;;;;5022702;28;20201;-84
2022/10/11 10:53:09;;;;;;;22.90;13.80;;;19.70;99.90;;;;;;5030723;28;20036;-83
2022/10/11 10:55:45;;;;;;;26.58;14.80;;;19.80;99.90;;;;;;5013025;28;20048;-84
2022/10/11 10:58:25;;;;;;;24.33;14.40;;;19.80;99.90;;;;;;5030929;28;20026;-83
2022/10/11 11:00:58;;;;;;;23.13;14.48;;;19.80;99.90;;;;;;5030998;28;20017;-83
2022/10/11 11:03:51;;;;;;;31.40;13.23;;;19.80;99.90;;;;;;5030685;28;20030;-84
2022/10/11 11:06:22;;;;;;;20.83;14.43;;;19.80;99.90;;;;;;5030503;28;20097;-84
2022/10/11 11:09:05;;;;;;;19.77;12.70;;;19.80;99.90;;;;;;5030688;28;20433;-84
2022/10/11 11:11:34;;;;;;;21.20;12.80;;;20.00;99.90;;;;;;5030575;28;20029;-84
2022/10/11 11:14:28;;;;;;;21.02;13.32;;;20.00;99.90;;;;;;5030502;28;20022;-84
2022/10/11 11:17:15;;;;;;;24.27;14.05;;;20.10;99.90;;;;;;5012810;28;20057;-84
2022/10/11 11:19:59;;;;;;;23.85;13.73;;;20.20;99.90;;;;;;5030829;28;20052;-84
2022/10/11 11:22:54;;;;;;;21.38;12.30;;;20.20;99.90;;;;;;5012983;28;20025;-83
2022/10/11 11:25:32;;;;;;;21.00;13.30;;;20.30;99.90;;;;;;5003268;28;20072;-84
2022/10/11 11:28:17;;;;;;;19.65;13.20;;;20.40;99.90;;;;;;5030570;28;20025;-84
2022/10/11 11:31:05;;;;;;;20.02;12.80;;;20.40;99.90;;;;;;5030672;28;20030;-84
2022/10/11 11:33:52;;;;;;;24.95;14.60;;;20.40;99.90;;;;;;5030452;28;20502;-83
2022/10/11 11:36:33;;;;;;;26.30;13.50;;;20.40;99.90;;;;;;5030293;28;20056;-83
2022/10/11 11:39:03;;;;;;;25.27;14.65;;;20.50;99.90;;;;;;5033781;28;20021;-84
2022/10/11 11:41:40;;;;;;;20.80;14.77;;;20.50;99.90;;;;;;5034198;28;20030;-83
2022/10/11 11:44:16;;;;;;;22.73;13.48;;;20.50;99.90;;;;;;5049548;28;20033;-84
2022/10/11 11:46:51;;;;;;;23.98;14.55;;;20.60;99.90;;;;;;5036197;28;20565;-83
2022/10/11 11:49:36;;;;;;;28.33;14.85;;;20.70;99.90;;;;;;5054234;28;20161;-84
2022/10/11 11:52:10;;;;;;;30.02;14.10;;;20.80;99.90;;;;;;5054105;28;20520;-83
2022/10/11 11:55:03;;;;;;;27.58;15.43;;;20.80;99.90;;;;;;5053908;28;20484;-84
2022/10/11 11:57:43;;;;;;;22.70;14.18;;;20.70;99.90;;;;;;5035958;28;20365;-84
2022/10/11 12:00:18;;;;;;;24.73;15.07;;;20.80;99.90;;;;;;5050795;28;20029;-84
2022/10/11 12:03:12;;;;;;;22.20;13.35;;;20.90;99.90;;;;;;5033871;28;20526;-84
2022/10/11 12:05:58;;;;;;;22.20;14.23;;;21.00;99.90;;;;;;5033834;28;20425;-84
2022/10/11 12:08:26;;;;;;;26.08;14.82;;;21.00;99.90;;;;;;5033785;28;20021;-84
2022/10/11 12:10:58;;;;;;;29.23;14.15;;;21.10;99.90;;;;;;5016159;28;20026;-83
2022/10/11 12:13:35;;;;;;;26.53;14.40;;;21.20;99.90;;;;;;5015901;28;20044;-84
2022/10/11 12:16:11;;;;;;;24.95;14.75;;;21.20;99.90;;;;;;5015945;28;20060;-84
2022/10/11 12:19:01;;;;;;;26.02;15.60;;;21.10;99.90;;;;;;5015953;28;20080;-84
2022/10/11 12:21:37;;;;;;;31.48;16.10;;;21.10;99.90;;;;;;5010376;28;20022;-84
2022/10/11 12:24:14;;;;;;;20.98;14.98;;;21.10;99.90;;;;;;5029436;28;20080;-84
2022/10/11 12:26:47;;;;;;;23.85;13.70;;;21.10;99.90;;;;;;5029294;28;20155;-84
2022/10/11 12:29:19;;;;;;;24.65;15.10;;;21.20;99.90;;;;;;5029170;28;20429;-84
2022/10/11 12:31:58;;;;;;;27.67;14.68;;;21.20;99.90;;;;;;5011180;28;20029;-84
2022/10/11 12:34:35;;;;;;;28.02;15.52;;;21.20;99.90;;;;;;5028598;28;20467;-84
2022/10/11 12:37:19;;;;;;;23.27;13.70;;;21.30;99.90;;;;;;5028310;28;20056;-84
2022/10/11 12:39:52;;;;;;;22.55;15.02;;;21.30;99.90;;;;;;5027380;28;20505;-84
2022/10/11 12:42:26;;;;;;;22.80;15.32;;;21.20;99.90;;;;;;5010753;28;20165;-84
2022/10/11 12:45:10;;;;;;;23.50;14.40;;;21.30;99.90;;;;;;5028470;28;20502;-84
2022/10/11 12:48:30;;;;;;;21.88;14.63;;;21.30;99.90;;;;;;5028425;28;20022;-84
2022/10/11 12:51:23;;;;;;;22.00;15.07;;;21.30;99.90;;;;;;4983145;28;20506;-84
2022/10/11 12:54:22;;;;;;;23.73;15.82;;;21.30;99.90;;;;;;5028087;28;20108;-84
2022/10/11 12:57:10;;;;;;;22.98;16.27;;;21.40;99.90;;;;;;4987778;28;20056;-83
2022/10/11 12:59:43;;;;;;;27.88;15.60;;;21.40;99.90;;;;;;5015946;28;20037;-84
2022/10/11 13:02:41;;;;;;;29.33;16.48;;;21.50;99.90;;;;;;5028652;28;20364;-84
2022/10/11 13:05:18;;;;;;;28.25;14.65;;;21.60;99.90;;;;;;5032129;28;20108;-84
2022/10/11 13:07:45;;;;;;;23.70;15.85;;;21.60;99.90;;;;;;5032076;28;20604;-84
2022/10/11 13:10:26;;;;;;;21.10;13.85;;;21.60;99.90;;;;;;5030505;28;20109;-83
2022/10/11 13:12:53;;;;;;;25.57;15.57;;;21.60;99.90;;;;;;5048100;28;20067;-84
2022/10/11 13:15:22;;;;;;;26.52;15.93;;;21.60;99.90;;;;;;5052297;28;20021;-83
2022/10/11 13:17:50;;;;;;;25.08;16.45;;;21.60;99.90;;;;;;5051483;28;20056;-84
2022/10/11 13:20:16;;;;;;;23.17;15.85;;;21.60;99.90;;;;;;5033264;28;20017;-84
2022/10/11 13:22:47;;;;;;;25.67;16.40;;;21.60;99.90;;;;;;5028559;28;20036;-84
2022/10/11 13:25:25;;;;;;;26.88;17.15;;;21.60;99.90;;;;;;5031716;28;20032;-84
2022/10/11 13:27:52;;;;;;;26.98;16.25;;;21.60;99.90;;;;;;5031310;28;20029;-84
2022/10/11 13:30:25;;;;;;;25.52;15.40;;;21.60;99.90;;;;;;5030947;28;20056;-84
2022/10/11 13:32:52;;;;;;;31.13;16.88;;;21.60;99.90;;;;;;5013239;28;20101;-84
2022/10/11 13:35:31;;;;;;;25.88;17.20;;;21.70;99.90;;;;;;5013354;28;20028;-83
2022/10/11 13:37:58;;;;;;;27.90;16.52;;;21.60;99.90;;;;;;5031880;28;20022;-84
2022/10/11 13:40:25;;;;;;;29.45;17.30;;;21.70;99.90;;;;;;5031291;28;20014;-84
2022/10/11 13:42:52;;;;;;;28.75;17.08;;;21.70;99.90;;;;;;5031281;28;20087;-84
2022/10/11 13:45:24;;;;;;;23.30;16.35;;;21.60;99.90;;;;;;5031639;28;20022;-85
2022/10/11 13:47:52;;;;;;;30.88;17.73;;;21.70;99.90;;;;;;5030029;28;20032;-84
2022/10/11 13:50:30;;;;;;;27.88;16.48;;;21.70;99.90;;;;;;5044229;28;20040;-84
2022/10/11 13:53:07;;;;;;;27.08;16.20;;;21.70;99.90;;;;;;5050651;28;20024;-84
2022/10/11 13:55:48;;;;;;;25.55;16.40;;;21.70;99.90;;;;;;5050875;28;20052;-84
2022/10/11 13:58:26;;;;;;;24.67;15.77;;;21.70;99.90;;;;;;5033840;28;20502;-84
2022/10/11 14:01:04;;;;;;;36.60;16.08;;;21.80;99.90;;;;;;5014926;28;20053;-84
2022/10/11 14:03:41;;;;;;;24.13;15.52;;;21.80;99.90;;;;;;5032951;28;20037;-84
2022/10/11 14:06:07;;;;;;;26.00;16.73;;;21.90;99.90;;;;;;5010726;28;20045;-82
2022/10/11 14:08:43;;;;;;;24.33;16.45;;;21.90;99.90;;;;;;5030331;28;20030;-82
2022/10/11 14:11:11;;;;;;;28.60;14.95;;;21.90;99.90;;;;;;5030320;28;20033;-82
2022/10/11 14:13:39;;;;;;;20.85;14.77;;;22.00;99.90;;;;;;5031275;28;20088;-82
2022/10/11 14:16:10;;;;;;;23.25;15.45;;;22.00;99.90;;;;;;5029616;28;20026;-83
2022/10/11 14:18:44;;;;;;;28.27;17.08;;;21.90;99.90;;;;;;5030587;28;20053;-82
2022/10/11 14:21:19;;;;;;;21.85;14.75;;;22.00;99.90;;;;;;5028570;28;20232;-82
2022/10/11 14:24:18;;;;;;;22.15;14.88;;;22.00;99.90;;;;;;5030898;28;20022;-82
2022/10/11 14:26:47;;;;;;;22.20;14.70;;;22.00;99.90;;;;;;5008061;28;20041;-82
2022/10/11 14:29:20;;;;;;;22.30;15.27;;;22.00;99.90;;;;;;5029119;28;20167;-83
2022/10/11 14:31:46;;;;;;;24.45;15.18;;;22.00;99.90;;;;;;5030156;28;20029;-82
2022/10/11 14:34:21;;;;;;;25.23;14.85;;;22.00;99.90;;;;;;5029780;28;20075;-83
2022/10/11 14:36:49;;;;;;;23.67;15.45;;;21.90;99.90;;;;;;5042376;28;20080;-84
2022/10/11 14:39:21;;;;;;;27.05;16.45;;;21.90;99.90;;;;;;5050138;28;20026;-82
2022/10/11 14:41:47;;;;;;;22.63;14.77;;;21.90;99.90;;;;;;5052024;28;20021;-83
2022/10/11 14:44:15;;;;;;;23.02;14.70;;;21.90;99.90;;;;;;5052054;28;20051;-83
2022/10/11 14:46:42;;;;;;;26.90;13.60;;;21.90;99.90;;;;;;5032962;28;20021;-83
2022/10/11 14:49:20;;;;;;;28.48;16.02;;;21.90;99.90;;;;;;5051031;28;20032;-75
2022/10/11 14:51:48;;;;;;;26.38;14.77;;;21.80;99.90;;;;;;5049826;28;20071;-75
2022/10/11 14:54:17;;;;;;;22.48;14.00;;;21.80;99.90;;;;;;5048899;28;20025;-75
2022/10/11 14:56:44;;;;;;;22.33;13.13;;;21.80;99.90;;;;;;5048828;28;20390;-75
2022/10/11 14:59:22;;;;;;;18.60;12.40;;;21.80;99.90;;;;;;5049152;28;20021;-75
2022/10/11 15:01:52;;;;;;;20.75;12.07;;;21.80;99.90;;;;;;5050191;28;20509;-75
2022/10/11 15:04:23;;;;;;;19.20;12.63;;;21.80;99.90;;;;;;5050355;28;20036;-75
2022/10/11 15:06:50;;;;;;;25.00;11.18;;;21.70;99.90;;;;;;5050438;28;20036;-75
2022/10/11 15:09:19;;;;;;;17.92;11.65;;;21.60;99.90;;;;;;5050688;28;20024;-75
2022/10/11 15:11:46;;;;;;;17.27;10.48;;;21.60;99.90;;;;;;5052106;28;20398;-75
2022/10/11 15:14:11;;;;;;;16.95;10.32;;;21.60;99.90;;;;;;5054766;28;20029;-75
2022/10/11 15:16:39;;;;;;;17.17;10.35;;;21.50;99.90;;;;;;5036276;28;20029;-75
2022/10/11 15:19:05;;;;;;;12.63;10.20;;;21.50;99.90;;;;;;5030465;28;20025;-75
2022/10/11 15:21:31;;;;;;;12.32;9.77;;;21.50;99.90;;;;;;5030966;28;20061;-75
2022/10/11 15:23:56;;;;;;;15.50;9.73;;;21.40;99.90;;;;;;5030035;28;20030;-75
2022/10/11 15:26:25;;;;;;;17.83;9.50;;;21.40;99.90;;;;;;5030874;28;20022;-75
2022/10/11 15:28:54;;;;;;;17.58;9.85;;;21.30;99.90;;;;;;5030383;28;20038;-75
2022/10/11 15:31:20;;;;;;;15.32;9.88;;;21.20;99.90;;;;;;5030132;28;20112;-75
2022/10/11 15:33:47;;;;;;;17.77;9.82;;;21.20;99.90;;;;;;5030634;28;20029;-75
2022/10/11 15:36:18;;;;;;;12.77;9.57;;;21.10;99.90;;;;;;5030087;28;20049;-75
2022/10/11 15:38:48;;;;;;;13.02;9.75;;;21.10;99.90;;;;;;5028828;28;20347;-75
2022/10/11 15:41:15;;;;;;;16.70;10.82;;;21.10;99.90;;;;;;5027016;28;20036;-75
2022/10/11 15:43:43;;;;;;;17.17;10.63;;;21.00;99.90;;;;;;5030325;28;20028;-75
2022/10/11 15:46:13;;;;;;;13.88;9.93;;;20.90;99.90;;;;;;5029662;28;20033;-75
2022/10/11 15:48:38;;;;;;;16.35;10.18;;;20.80;99.90;;;;;;5029624;28;20115;-75
2022/10/11 15:51:04;;;;;;;16.20;10.40;;;20.80;99.90;;;;;;5030248;28;20021;-75
2022/10/11 15:53:31;;;;;;;15.88;9.90;;;20.70;99.90;;;;;;5032130;28;20026;-75
2022/10/11 15:55:59;;;;;;;19.88;10.80;;;20.70;99.90;;;;;;5030050;28;20052;-75
2022/10/11 15:58:28;;;;;;;14.07;10.07;;;20.60;99.90;;;;;;5012829;28;20032;-75
2022/10/11 16:00:56;;;;;;;20.25;10.43;;;20.50;99.90;;;;;;5029688;28;20463;-75
2022/10/11 16:03:24;;;;;;;16.48;9.75;;;20.50;99.90;;;;;;5029207;28;20055;-76
2022/10/11 16:05:55;;;;;;;17.17;9.93;;;20.40;99.90;;;;;;5029676;28;20030;-75
2022/10/11 16:08:21;;;;;;;11.50;8.60;;;20.40;99.90;;;;;;5011384;28;20056;-76
2022/10/11 16:10:47;;;;;;;13.55;10.25;;;20.30;99.90;;;;;;5028771;28;20491;-75
2022/10/11 16:13:13;;;;;;;18.10;10.02;;;20.20;99.90;;;;;;5027998;28;20096;-75
2022/10/11 16:15:41;;;;;;;17.15;10.00;;;20.10;99.90;;;;;;5011076;28;20495;-75
2022/10/11 16:18:11;;;;;;;13.75;9.55;;;20.10;99.90;;;;;;5028433;28;20045;-75
2022/10/11 16:20:42;;;;;;;17.90;9.23;;;20.00;99.90;;;;;;5029545;28;20017;-75
2022/10/11 16:23:08;;;;;;;15.18;8.90;;;19.90;99.90;;;;;;5025734;28;20049;-75
2022/10/11 16:25:34;;;;;;;20.42;9.93;;;19.90;99.90;;;;;;5028879;28;20458;-75
2022/10/11 16:28:01;;;;;;;17.67;10.10;;;19.80;99.90;;;;;;5029553;28;20063;-75
2022/10/11 16:30:27;;;;;;;17.15;10.80;;;19.80;99.90;;;;;;5006146;28;20030;-75
2022/10/11 16:32:53;;;;;;;13.43;10.63;;;19.70;99.90;;;;;;5011712;28;20103;-75
2022/10/11 16:35:18;;;;;;;15.93;10.57;;;19.70;99.90;;;;;;5028336;28;20017;-75
2022/10/11 16:37:44;;;;;;;14.55;9.68;;;19.60;99.90;;;;;;5048142;28;20021;-75
2022/10/11 16:40:16;;;;;;;15.32;9.75;;;19.60;99.90;;;;;;5049095;28;20037;-75
2022/10/11 16:42:43;;;;;;;17.70;10.55;;;19.50;99.90;;;;;;5049544;28;20032;-75
2022/10/11 16:45:09;;;;;;;17.48;10.07;;;19.40;99.90;;;;;;5048344;28;20021;-75
2022/10/11 16:47:35;;;;;;;15.68;11.60;;;19.30;99.90;;;;;;5049092;28;20040;-75
2022/10/11 16:50:01;;;;;;;15.70;11.05;;;19.30;99.90;;;;;;5048042;28;20025;-75
2022/10/11 16:52:27;;;;;;;16.88;11.05;;;19.30;99.90;;;;;;5048229;28;20036;-75
2022/10/11 16:54:52;;;;;;;19.08;10.75;;;19.20;99.90;;;;;;5030627;28;20036;-76
2022/10/11 16:57:19;;;;;;;19.48;11.63;;;19.10;99.90;;;;;;5040961;28;20024;-74
2022/10/11 16:59:45;;;;;;;18.27;11.38;;;19.10;99.90;;;;;;5030292;28;20052;-74
2022/10/11 17:02:37;;;;;;;18.25;11.10;;;19.00;99.90;;;;;;5029519;28;20033;-74
2022/10/11 17:05:03;;;;;;;19.95;10.13;;;18.90;99.90;;;;;;5009323;28;20033;-75
2022/10/11 17:07:30;;;;;;;20.00;11.27;;;18.90;99.90;;;;;;5010698;28;20032;-75
2022/10/11 17:09:56;;;;;;;17.52;11.70;;;18.80;99.90;;;;;;5010654;28;20171;-75
2022/10/11 21:06:15;;;;;;;23.92;13.93;;;16.60;99.90;;;;;;4903903;23;20048;-76
2022/10/11 21:08:41;;;;;;;22.30;13.90;;;16.60;99.90;;;;;;4894680;29;20025;-76
2022/10/11 21:11:08;;;;;;;27.90;14.05;;;16.50;99.90;;;;;;4891944;29;20028;-75
2022/10/11 21:13:34;;;;;;;21.35;14.35;;;16.50;99.90;;;;;;4874628;29;20494;-76
2022/10/11 21:16:10;;;;;;;25.73;15.55;;;16.50;99.90;;;;;;4892967;29;20338;-76
2022/10/11 21:18:36;;;;;;;23.90;14.77;;;16.50;99.90;;;;;;4876482;29;20032;-77
2022/10/11 21:21:06;;;;;;;22.95;14.43;;;16.50;99.90;;;;;;4874620;29;20079;-77
2022/10/11 21:23:32;;;;;;;27.48;15.13;;;16.50;99.90;;;;;;4875888;29;20517;-76
2022/10/11 21:26:06;;;;;;;20.05;13.27;;;16.40;99.90;;;;;;4876440;29;20033;-77
2022/10/11 21:28:32;;;;;;;24.08;13.48;;;16.40;99.90;;;;;;4892033;29;20111;-77
2022/10/11 21:31:04;;;;;;;25.40;14.85;;;16.40;99.90;;;;;;4890666;29;20100;-76
2022/10/11 21:33:30;;;;;;;21.52;14.35;;;16.40;99.90;;;;;;4891823;29;20080;-77
2022/10/11 21:35:56;;;;;;;21.08;13.27;;;16.40;99.90;;;;;;4893691;29;20085;-76
2022/10/11 21:38:22;;;;;;;18.65;13.60;;;16.40;99.90;;;;;;4875198;29;20032;-76
2022/10/11 21:40:47;;;;;;;20.10;13.82;;;16.40;99.90;;;;;;4892973;29;20103;-76
2022/10/11 21:43:13;;;;;;;20.80;13.15;;;16.40;99.90;;;;;;4893001;29;20029;-76
2022/10/11 21:45:39;;;;;;;19.52;13.63;;;16.40;99.90;;;;;;4891444;29;20081;-76
2022/10/11 21:48:08;;;;;;;21.27;12.45;;;16.40;99.90;;;;;;4892950;29;20036;-76
2022/10/11 21:50:33;;;;;;;18.30;12.73;;;16.40;99.90;;;;;;4892657;29;20224;-76
2022/10/11 21:52:59;;;;;;;23.15;14.38;;;16.40;99.90;;;;;;4892077;29;20483;-76
2022/10/11 21:55:26;;;;;;;22.65;13.38;;;16.30;99.90;;;;;;4878123;29;20028;-76
2022/10/11 21:57:51;;;;;;;22.52;14.13;;;16.30;99.90;;;;;;4879815;29;20107;-75
2022/10/11 22:00:17;;;;;;;20.77;13.20;;;16.30;99.90;;;;;;4896710;29;20168;-76
2022/10/11 22:02:43;;;;;;;22.08;13.50;;;16.30;99.90;;;;;;4896646;29;20032;-76
2022/10/11 22:05:09;;;;;;;21.48;13.00;;;16.30;99.90;;;;;;4895989;29;20521;-75
2022/10/11 22:07:34;;;;;;;19.52;12.85;;;16.30;99.90;;;;;;4879734;29;20024;-76
2022/10/11 22:10:00;;;;;;;23.73;14.07;;;16.30;99.90;;;;;;4895959;29;20028;-76
2022/10/11 22:12:25;;;;;;;21.25;12.85;;;16.20;99.90;;;;;;4896353;29;20477;-75
2022/10/11 22:14:51;;;;;;;21.58;12.55;;;16.30;99.90;;;;;;4894704;29;20085;-77
2022/10/11 22:17:17;;;;;;;19.70;13.50;;;16.30;99.90;;;;;;4895002;29;20028;-76
2022/10/11 22:19:42;;;;;;;17.90;13.02;;;16.30;99.90;;;;;;4878358;29;20029;-76
2022/10/11 22:22:08;;;;;;;19.40;12.73;;;16.30;99.90;;;;;;4877983;29;20021;-76
2022/10/11 22:24:34;;;;;;;17.60;12.18;;;16.30;99.90;;;;;;4878646;29;20127;-76
2022/10/11 22:26:59;;;;;;;24.00;13.68;;;16.30;99.90;;;;;;4895839;29;20032;-76
2022/10/11 22:29:26;;;;;;;16.38;11.63;;;16.30;99.90;;;;;;4896236;29;20043;-76
2022/10/11 22:31:51;;;;;;;20.50;13.18;;;16.30;99.90;;;;;;4896015;29;20039;-76
2022/10/11 22:34:17;;;;;;;22.83;12.50;;;16.20;99.90;;;;;;4896061;29;20024;-76
2022/10/11 22:36:43;;;;;;;18.75;12.45;;;16.20;99.90;;;;;;4896276;29;20025;-76
2022/10/11 22:39:10;;;;;;;18.75;12.50;;;16.20;99.90;;;;;;4896043;29;20040;-76
2022/10/11 22:41:36;;;;;;;21.17;13.00;;;16.20;99.90;;;;;;4879125;29;20483;-76
2022/10/11 22:44:02;;;;;;;18.35;12.38;;;16.20;99.90;;;;;;4895919;29;20375;-76
2022/10/11 22:46:28;;;;;;;19.95;12.07;;;16.20;99.90;;;;;;4895987;29;20036;-76
2022/10/11 22:48:54;;;;;;;18.13;11.70;;;16.20;99.90;;;;;;4879008;29;20035;-76
2022/10/11 22:51:20;;;;;;;20.05;12.63;;;16.20;99.90;;;;;;4895959;29;20629;-76
2022/10/11 22:53:45;;;;;;;21.38;11.50;;;16.10;99.90;;;;;;4895808;29;20420;-76
2022/10/11 22:56:11;;;;;;;18.05;11.77;;;16.10;99.90;;;;;;4878780;29;20557;-77
2022/10/11 22:58:37;;;;;;;17.17;11.70;;;16.20;99.90;;;;;;4879085;29;20147;-76
2022/10/11 23:01:08;;;;;;;20.40;12.25;;;16.20;99.90;;;;;;4895846;29;20028;-76
2022/10/11 23:03:33;;;;;;;18.02;12.00;;;16.20;99.90;;;;;;4878960;29;20486;-77
2022/10/11 23:05:59;;;;;;;19.33;12.88;;;16.10;99.90;;;;;;4895617;29;20055;-76
2022/10/11 23:08:25;;;;;;;18.85;13.40;;;16.10;99.90;;;;;;4879018;29;20031;-76
2022/10/11 23:10:51;;;;;;;17.20;12.45;;;16.10;99.90;;;;;;4895753;29;20033;-76
2022/10/11 23:13:17;;;;;;;19.38;12.50;;;16.10;99.90;;;;;;4895640;29;20041;-76
2022/10/11 23:15:42;;;;;;;19.48;13.55;;;16.10;99.90;;;;;;4878814;29;20081;-76
2022/10/11 23:18:08;;;;;;;21.02;12.85;;;16.10;99.90;;;;;;4878913;29;20123;-76
2022/10/11 23:20:36;;;;;;;22.98;12.32;;;16.00;99.90;;;;;;4878739;29;20251;-77
2022/10/11 23:23:01;;;;;;;18.50;12.73;;;16.00;99.90;;;;;;4895638;29;20033;-76
2022/10/11 23:25:27;;;;;;;16.27;11.48;;;16.00;99.90;;;;;;4878864;29;20044;-76
2022/10/11 23:27:53;;;;;;;18.65;12.80;;;16.00;99.90;;;;;;4895541;29;20028;-76
2022/10/11 23:30:18;;;;;;;17.25;11.63;;;16.10;99.90;;;;;;4895796;29;20089;-76
2022/10/11 23:32:44;;;;;;;16.48;11.60;;;16.00;99.90;;;;;;4896841;29;20438;-76
2022/10/11 23:35:10;;;;;;;24.98;13.35;;;16.00;99.90;;;;;;4882274;29;20512;-76
2022/10/11 23:37:35;;;;;;;20.42;12.45;;;16.10;99.90;;;;;;4899041;29;20025;-76
2022/10/11 23:40:01;;;;;;;16.75;11.57;;;16.00;99.90;;;;;;4899133;29;20254;-76
2022/10/11 23:42:27;;;;;;;20.83;12.23;;;16.00;99.90;;;;;;4899202;29;20483;-76
2022/10/11 23:44:53;;;;;;;15.95;12.48;;;16.00;99.90;;;;;;4881991;29;20069;-76
2022/10/11 23:47:18;;;;;;;19.83;10.80;;;16.00;99.90;;;;;;4899018;29;20111;-76
2022/10/11 23:49:44;;;;;;;17.20;11.75;;;16.00;99.90;;;;;;4898999;29;20037;-76
2022/10/11 23:52:10;;;;;;;22.27;10.65;;;16.00;99.90;;;;;;4898936;29;20169;-77
2022/10/11 23:54:35;;;;;;;17.00;11.65;;;16.00;99.90;;;;;;4898772;29;20031;-76
2022/10/11 23:57:01;;;;;;;18.52;10.98;;;16.00;99.90;;;;;;4898905;29;20664;-76
2022/10/11 23:59:27;;;;;;;13.98;9.75;;;15.90;99.90;;;;;;4898860;29;20107;-76
